sensor_id;sensor_type;location;lat;lon;timestamp;P1;durP1;ratioP1;P2;durP2;ratioP2
6406;SDS011;3236;51.022;6.818;2023-01-08T00:01:02;1.90;;;1.50;;
6406;SDS011;3236;51.022;6.818;2023-01-08T00:03:29;1.40;;;1.27;;
6406;SDS011;3236;51.022;6.818;2023-01-08T00:05:59;3.15;;;1.40;;
6406;SDS011;3236;51.022;6.818;2023-01-08T00:08:28;1.52;;;1.27;;
6406;SDS011;3236;51.022;6.818;2023-01-08T00:10:56;1.35;;;1.23;;
6406;SDS011;3236;51.022;6.818;2023-01-08T00:13:24;1.85;;;1.40;;
6406;SDS011;3236;51.022;6.818;2023-01-08T00:15:51;2.60;;;1.40;;
6406;SDS011;3236;51.022;6.818;2023-01-08T00:18:19;1.52;;;1.40;;
6406;SDS011;3236;51.022;6.818;2023-01-08T00:20:47;3.97;;;1.70;;
6406;SDS011;3236;51.022;6.818;2023-01-08T00:23:17;1.95;;;1.58;;
6406;SDS011;3236;51.022;6.818;2023-01-08T00:25:47;2.47;;;1.37;;
6406;SDS011;3236;51.022;6.818;2023-01-08T00:28:15;3.60;;;1.90;;
6406;SDS011;3236;51.022;6.818;2023-01-08T00:30:44;3.47;;;1.67;;
6406;SDS011;3236;51.022;6.818;2023-01-08T00:33:12;5.00;;;1.80;;
6406;SDS011;3236;51.022;6.818;2023-01-08T00:35:39;3.67;;;2.22;;
6406;SDS011;3236;51.022;6.818;2023-01-08T00:38:07;3.22;;;1.65;;
6406;SDS011;3236;51.022;6.818;2023-01-08T00:40:34;5.32;;;1.75;;
6406;SDS011;3236;51.022;6.818;2023-01-08T00:43:07;3.13;;;1.70;;
6406;SDS011;3236;51.022;6.818;2023-01-08T00:45:40;1.45;;;1.35;;
6406;SDS011;3236;51.022;6.818;2023-01-08T00:48:08;4.10;;;1.70;;
6406;SDS011;3236;51.022;6.818;2023-01-08T00:50:35;1.85;;;1.40;;
6406;SDS011;3236;51.022;6.818;2023-01-08T00:53:02;2.17;;;1.63;;
6406;SDS011;3236;51.022;6.818;2023-01-08T00:55:30;3.72;;;2.35;;
6406;SDS011;3236;51.022;6.818;2023-01-08T00:57:57;2.17;;;1.85;;
6406;SDS011;3236;51.022;6.818;2023-01-08T01:00:26;4.13;;;2.08;;
6406;SDS011;3236;51.022;6.818;2023-01-08T01:02:53;2.38;;;1.90;;
6406;SDS011;3236;51.022;6.818;2023-01-08T01:05:20;4.18;;;2.00;;
6406;SDS011;3236;51.022;6.818;2023-01-08T01:07:47;2.28;;;1.83;;
6406;SDS011;3236;51.022;6.818;2023-01-08T01:10:15;2.35;;;1.50;;
6406;SDS011;3236;51.022;6.818;2023-01-08T01:12:43;3.22;;;2.00;;
6406;SDS011;3236;51.022;6.818;2023-01-08T01:15:11;2.25;;;2.00;;
6406;SDS011;3236;51.022;6.818;2023-01-08T01:17:42;2.35;;;2.13;;
6406;SDS011;3236;51.022;6.818;2023-01-08T01:20:12;3.25;;;2.13;;
6406;SDS011;3236;51.022;6.818;2023-01-08T01:22:41;9.02;;;2.40;;
6406;SDS011;3236;51.022;6.818;2023-01-08T01:25:09;2.28;;;1.83;;
6406;SDS011;3236;51.022;6.818;2023-01-08T01:27:39;5.15;;;2.08;;
6406;SDS011;3236;51.022;6.818;2023-01-08T01:30:08;4.53;;;2.13;;
6406;SDS011;3236;51.022;6.818;2023-01-08T01:32:37;3.47;;;1.92;;
6406;SDS011;3236;51.022;6.818;2023-01-08T01:35:07;2.78;;;1.80;;
6406;SDS011;3236;51.022;6.818;2023-01-08T01:37:34;3.63;;;1.73;;
6406;SDS011;3236;51.022;6.818;2023-01-08T01:40:02;1.95;;;1.70;;
6406;SDS011;3236;51.022;6.818;2023-01-08T01:42:33;4.45;;;1.90;;
6406;SDS011;3236;51.022;6.818;2023-01-08T01:45:15;1.98;;;1.55;;
6406;SDS011;3236;51.022;6.818;2023-01-08T01:47:46;2.03;;;1.50;;
6406;SDS011;3236;51.022;6.818;2023-01-08T01:50:21;6.53;;;1.90;;
6406;SDS011;3236;51.022;6.818;2023-01-08T01:52:55;3.15;;;1.85;;
6406;SDS011;3236;51.022;6.818;2023-01-08T01:55:26;2.10;;;1.70;;
6406;SDS011;3236;51.022;6.818;2023-01-08T01:57:56;3.95;;;2.03;;
6406;SDS011;3236;51.022;6.818;2023-01-08T02:00:32;2.88;;;1.75;;
6406;SDS011;3236;51.022;6.818;2023-01-08T02:03:11;2.47;;;1.92;;
6406;SDS011;3236;51.022;6.818;2023-01-08T02:05:44;2.97;;;1.95;;
6406;SDS011;3236;51.022;6.818;2023-01-08T02:08:17;2.90;;;2.22;;
6406;SDS011;3236;51.022;6.818;2023-01-08T02:10:52;3.92;;;2.10;;
6406;SDS011;3236;51.022;6.818;2023-01-08T02:13:25;3.70;;;1.67;;
6406;SDS011;3236;51.022;6.818;2023-01-08T02:15:55;4.30;;;1.75;;
6406;SDS011;3236;51.022;6.818;2023-01-08T02:18:26;3.00;;;1.90;;
6406;SDS011;3236;51.022;6.818;2023-01-08T02:21:00;4.65;;;2.08;;
6406;SDS011;3236;51.022;6.818;2023-01-08T02:23:44;3.13;;;2.00;;
6406;SDS011;3236;51.022;6.818;2023-01-08T02:26:17;3.88;;;2.17;;
6406;SDS011;3236;51.022;6.818;2023-01-08T02:28:47;2.95;;;1.88;;
6406;SDS011;3236;51.022;6.818;2023-01-08T02:31:22;4.53;;;2.22;;
6406;SDS011;3236;51.022;6.818;2023-01-08T02:33:52;3.13;;;2.40;;
6406;SDS011;3236;51.022;6.818;2023-01-08T02:36:24;4.25;;;2.60;;
6406;SDS011;3236;51.022;6.818;2023-01-08T02:39:02;5.15;;;2.42;;
6406;SDS011;3236;51.022;6.818;2023-01-08T02:41:43;3.10;;;2.28;;
6406;SDS011;3236;51.022;6.818;2023-01-08T02:44:20;2.47;;;2.03;;
6406;SDS011;3236;51.022;6.818;2023-01-08T02:46:54;2.97;;;2.42;;
6406;SDS011;3236;51.022;6.818;2023-01-08T02:49:25;3.22;;;1.85;;
6406;SDS011;3236;51.022;6.818;2023-01-08T02:51:56;3.85;;;2.42;;
6406;SDS011;3236;51.022;6.818;2023-01-08T02:54:26;3.05;;;2.60;;
6406;SDS011;3236;51.022;6.818;2023-01-08T02:59:27;3.58;;;2.90;;
6406;SDS011;3236;51.022;6.818;2023-01-08T03:01:56;3.75;;;2.80;;
6406;SDS011;3236;51.022;6.818;2023-01-08T03:04:24;2.95;;;2.65;;
6406;SDS011;3236;51.022;6.818;2023-01-08T03:06:53;4.93;;;2.72;;
6406;SDS011;3236;51.022;6.818;2023-01-08T03:09:20;4.93;;;2.78;;
6406;SDS011;3236;51.022;6.818;2023-01-08T03:11:51;3.45;;;2.65;;
6406;SDS011;3236;51.022;6.818;2023-01-08T03:14:24;3.33;;;2.70;;
6406;SDS011;3236;51.022;6.818;2023-01-08T03:16:54;3.22;;;2.92;;
6406;SDS011;3236;51.022;6.818;2023-01-08T03:19:27;3.58;;;2.63;;
6406;SDS011;3236;51.022;6.818;2023-01-08T03:22:09;6.50;;;3.35;;
6406;SDS011;3236;51.022;6.818;2023-01-08T03:24:39;5.40;;;3.23;;
6406;SDS011;3236;51.022;6.818;2023-01-08T03:27:15;5.60;;;3.33;;
6406;SDS011;3236;51.022;6.818;2023-01-08T03:29:50;4.45;;;2.83;;
6406;SDS011;3236;51.022;6.818;2023-01-08T03:32:19;3.75;;;2.80;;
6406;SDS011;3236;51.022;6.818;2023-01-08T03:34:49;4.30;;;3.15;;
6406;SDS011;3236;51.022;6.818;2023-01-08T03:37:18;2.60;;;2.40;;
6406;SDS011;3236;51.022;6.818;2023-01-08T03:39:50;4.78;;;2.40;;
6406;SDS011;3236;51.022;6.818;2023-01-08T03:42:21;3.85;;;2.00;;
6406;SDS011;3236;51.022;6.818;2023-01-08T03:44:51;3.38;;;2.05;;
6406;SDS011;3236;51.022;6.818;2023-01-08T03:47:19;3.22;;;2.00;;
6406;SDS011;3236;51.022;6.818;2023-01-08T03:49:49;3.80;;;2.35;;
6406;SDS011;3236;51.022;6.818;2023-01-08T03:52:25;4.05;;;2.38;;
6406;SDS011;3236;51.022;6.818;2023-01-08T03:54:59;2.53;;;2.13;;
6406;SDS011;3236;51.022;6.818;2023-01-08T03:57:27;2.28;;;1.80;;
6406;SDS011;3236;51.022;6.818;2023-01-08T03:59:55;2.85;;;2.10;;
6406;SDS011;3236;51.022;6.818;2023-01-08T04:02:25;6.28;;;2.30;;
6406;SDS011;3236;51.022;6.818;2023-01-08T04:04:53;3.47;;;2.08;;
6406;SDS011;3236;51.022;6.818;2023-01-08T04:07:20;4.80;;;2.08;;
6406;SDS011;3236;51.022;6.818;2023-01-08T04:09:47;2.13;;;1.90;;
6406;SDS011;3236;51.022;6.818;2023-01-08T04:12:15;3.90;;;2.20;;
6406;SDS011;3236;51.022;6.818;2023-01-08T04:14:42;2.20;;;1.75;;
6406;SDS011;3236;51.022;6.818;2023-01-08T04:17:12;5.38;;;1.85;;
6406;SDS011;3236;51.022;6.818;2023-01-08T04:19:39;5.20;;;2.13;;
6406;SDS011;3236;51.022;6.818;2023-01-08T04:22:08;2.50;;;1.70;;
6406;SDS011;3236;51.022;6.818;2023-01-08T04:24:36;2.42;;;1.80;;
6406;SDS011;3236;51.022;6.818;2023-01-08T04:27:03;2.78;;;1.63;;
6406;SDS011;3236;51.022;6.818;2023-01-08T04:29:30;2.00;;;1.63;;
6406;SDS011;3236;51.022;6.818;2023-01-08T04:31:59;2.38;;;1.40;;
6406;SDS011;3236;51.022;6.818;2023-01-08T04:34:27;3.10;;;1.48;;
6406;SDS011;3236;51.022;6.818;2023-01-08T04:36:54;2.22;;;1.50;;
6406;SDS011;3236;51.022;6.818;2023-01-08T04:39:21;2.85;;;1.80;;
6406;SDS011;3236;51.022;6.818;2023-01-08T04:41:48;1.33;;;1.15;;
6406;SDS011;3236;51.022;6.818;2023-01-08T04:44:15;1.60;;;1.35;;
6406;SDS011;3236;51.022;6.818;2023-01-08T04:46:42;2.40;;;1.45;;
6406;SDS011;3236;51.022;6.818;2023-01-08T04:49:10;2.08;;;1.27;;
6406;SDS011;3236;51.022;6.818;2023-01-08T04:51:39;1.48;;;1.05;;
6406;SDS011;3236;51.022;6.818;2023-01-08T04:54:07;1.10;;;1.00;;
6406;SDS011;3236;51.022;6.818;2023-01-08T04:56:34;2.13;;;1.20;;
6406;SDS011;3236;51.022;6.818;2023-01-08T04:59:02;1.77;;;0.85;;
6406;SDS011;3236;51.022;6.818;2023-01-08T05:01:29;0.98;;;0.80;;
6406;SDS011;3236;51.022;6.818;2023-01-08T05:03:57;0.88;;;0.80;;
6406;SDS011;3236;51.022;6.818;2023-01-08T05:06:27;1.08;;;0.90;;
6406;SDS011;3236;51.022;6.818;2023-01-08T05:08:57;1.27;;;0.98;;
6406;SDS011;3236;51.022;6.818;2023-01-08T05:11:24;2.50;;;1.08;;
6406;SDS011;3236;51.022;6.818;2023-01-08T05:13:58;0.70;;;0.60;;
6406;SDS011;3236;51.022;6.818;2023-01-08T05:16:29;0.73;;;0.70;;
6406;SDS011;3236;51.022;6.818;2023-01-08T05:18:56;0.60;;;0.60;;
6406;SDS011;3236;51.022;6.818;2023-01-08T05:21:24;0.85;;;0.75;;
6406;SDS011;3236;51.022;6.818;2023-01-08T05:23:51;1.45;;;0.60;;
6406;SDS011;3236;51.022;6.818;2023-01-08T05:26:22;0.95;;;0.80;;
6406;SDS011;3236;51.022;6.818;2023-01-08T05:28:53;1.23;;;0.95;;
6406;SDS011;3236;51.022;6.818;2023-01-08T05:31:20;0.93;;;0.80;;
6406;SDS011;3236;51.022;6.818;2023-01-08T05:33:47;0.73;;;0.73;;
6406;SDS011;3236;51.022;6.818;2023-01-08T05:36:15;1.30;;;0.77;;
6406;SDS011;3236;51.022;6.818;2023-01-08T05:38:43;1.10;;;0.80;;
6406;SDS011;3236;51.022;6.818;2023-01-08T05:41:10;0.98;;;0.70;;
6406;SDS011;3236;51.022;6.818;2023-01-08T05:43:40;0.88;;;0.60;;
6406;SDS011;3236;51.022;6.818;2023-01-08T05:46:07;1.00;;;0.70;;
6406;SDS011;3236;51.022;6.818;2023-01-08T05:48:34;1.00;;;0.70;;
6406;SDS011;3236;51.022;6.818;2023-01-08T05:51:02;2.00;;;1.90;;
6406;SDS011;3236;51.022;6.818;2023-01-08T05:53:29;0.52;;;0.50;;
6406;SDS011;3236;51.022;6.818;2023-01-08T05:55:58;0.77;;;0.60;;
6406;SDS011;3236;51.022;6.818;2023-01-08T05:58:29;1.23;;;0.50;;
6406;SDS011;3236;51.022;6.818;2023-01-08T06:01:04;0.60;;;0.50;;
6406;SDS011;3236;51.022;6.818;2023-01-08T06:03:33;1.65;;;0.90;;
6406;SDS011;3236;51.022;6.818;2023-01-08T06:06:00;1.85;;;1.60;;
6406;SDS011;3236;51.022;6.818;2023-01-08T06:08:29;1.27;;;1.10;;
6406;SDS011;3236;51.022;6.818;2023-01-08T06:10:59;3.45;;;1.42;;
6406;SDS011;3236;51.022;6.818;2023-01-08T06:13:28;4.88;;;1.45;;
6406;SDS011;3236;51.022;6.818;2023-01-08T06:15:57;1.40;;;1.30;;
6406;SDS011;3236;51.022;6.818;2023-01-08T06:18:26;1.85;;;1.33;;
6406;SDS011;3236;51.022;6.818;2023-01-08T06:20:54;2.38;;;1.10;;
6406;SDS011;3236;51.022;6.818;2023-01-08T06:23:21;1.38;;;0.93;;
6406;SDS011;3236;51.022;6.818;2023-01-08T06:25:50;2.92;;;1.08;;
6406;SDS011;3236;51.022;6.818;2023-01-08T06:28:21;1.20;;;0.90;;
6406;SDS011;3236;51.022;6.818;2023-01-08T06:30:49;0.88;;;0.70;;
6406;SDS011;3236;51.022;6.818;2023-01-08T06:33:17;2.35;;;0.90;;
6406;SDS011;3236;51.022;6.818;2023-01-08T06:35:45;0.93;;;0.88;;
6406;SDS011;3236;51.022;6.818;2023-01-08T06:38:12;1.73;;;0.90;;
6406;SDS011;3236;51.022;6.818;2023-01-08T06:40:46;0.88;;;0.70;;
6406;SDS011;3236;51.022;6.818;2023-01-08T06:43:14;2.90;;;0.70;;
6406;SDS011;3236;51.022;6.818;2023-01-08T06:45:41;0.70;;;0.70;;
6406;SDS011;3236;51.022;6.818;2023-01-08T06:48:08;2.05;;;1.20;;
6406;SDS011;3236;51.022;6.818;2023-01-08T06:50:36;1.50;;;0.70;;
6406;SDS011;3236;51.022;6.818;2023-01-08T06:53:04;0.68;;;0.50;;
6406;SDS011;3236;51.022;6.818;2023-01-08T06:55:31;1.48;;;0.60;;
6406;SDS011;3236;51.022;6.818;2023-01-08T06:57:58;2.10;;;0.70;;
6406;SDS011;3236;51.022;6.818;2023-01-08T07:00:27;1.65;;;0.85;;
6406;SDS011;3236;51.022;6.818;2023-01-08T07:02:54;5.45;;;0.82;;
6406;SDS011;3236;51.022;6.818;2023-01-08T07:05:21;1.15;;;0.50;;
6406;SDS011;3236;51.022;6.818;2023-01-08T07:07:52;1.17;;;0.45;;
6406;SDS011;3236;51.022;6.818;2023-01-08T07:10:21;3.90;;;0.95;;
6406;SDS011;3236;51.022;6.818;2023-01-08T07:12:48;2.92;;;0.60;;
6406;SDS011;3236;51.022;6.818;2023-01-08T07:15:16;2.25;;;0.77;;
6406;SDS011;3236;51.022;6.818;2023-01-08T07:17:50;1.65;;;0.47;;
6406;SDS011;3236;51.022;6.818;2023-01-08T07:20:17;2.55;;;0.52;;
6406;SDS011;3236;51.022;6.818;2023-01-08T07:22:44;3.45;;;0.60;;
6406;SDS011;3236;51.022;6.818;2023-01-08T07:25:11;4.22;;;0.70;;
6406;SDS011;3236;51.022;6.818;2023-01-08T07:27:40;4.15;;;0.98;;
6406;SDS011;3236;51.022;6.818;2023-01-08T07:30:07;1.88;;;0.65;;
6406;SDS011;3236;51.022;6.818;2023-01-08T07:32:35;7.32;;;0.98;;
6406;SDS011;3236;51.022;6.818;2023-01-08T07:35:02;0.55;;;0.50;;
6406;SDS011;3236;51.022;6.818;2023-01-08T07:37:29;1.70;;;0.70;;
6406;SDS011;3236;51.022;6.818;2023-01-08T07:39:57;4.03;;;0.75;;
6406;SDS011;3236;51.022;6.818;2023-01-08T07:42:24;3.97;;;1.05;;
6406;SDS011;3236;51.022;6.818;2023-01-08T07:44:52;2.03;;;1.00;;
6406;SDS011;3236;51.022;6.818;2023-01-08T07:47:19;5.00;;;1.10;;
6406;SDS011;3236;51.022;6.818;2023-01-08T07:49:48;2.67;;;0.90;;
6406;SDS011;3236;51.022;6.818;2023-01-08T07:52:18;1.65;;;0.93;;
6406;SDS011;3236;51.022;6.818;2023-01-08T07:54:51;3.10;;;1.00;;
6406;SDS011;3236;51.022;6.818;2023-01-08T07:57:18;8.55;;;0.98;;
6406;SDS011;3236;51.022;6.818;2023-01-08T07:59:46;3.95;;;1.13;;
6406;SDS011;3236;51.022;6.818;2023-01-08T08:02:14;8.25;;;1.17;;
6406;SDS011;3236;51.022;6.818;2023-01-08T08:04:41;6.20;;;1.23;;
6406;SDS011;3236;51.022;6.818;2023-01-08T08:07:08;9.63;;;1.65;;
6406;SDS011;3236;51.022;6.818;2023-01-08T08:09:36;9.60;;;2.63;;
6406;SDS011;3236;51.022;6.818;2023-01-08T08:12:06;5.60;;;1.60;;
6406;SDS011;3236;51.022;6.818;2023-01-08T08:14:39;7.60;;;1.52;;
6406;SDS011;3236;51.022;6.818;2023-01-08T08:17:07;2.58;;;0.85;;
6406;SDS011;3236;51.022;6.818;2023-01-08T08:19:40;7.35;;;1.60;;
6406;SDS011;3236;51.022;6.818;2023-01-08T08:22:12;5.85;;;1.20;;
6406;SDS011;3236;51.022;6.818;2023-01-08T08:24:40;4.07;;;0.93;;
6406;SDS011;3236;51.022;6.818;2023-01-08T08:27:08;4.38;;;1.00;;
6406;SDS011;3236;51.022;6.818;2023-01-08T08:29:38;6.68;;;1.20;;
6406;SDS011;3236;51.022;6.818;2023-01-08T08:32:05;13.30;;;1.35;;
6406;SDS011;3236;51.022;6.818;2023-01-08T08:34:32;13.23;;;2.42;;
6406;SDS011;3236;51.022;6.818;2023-01-08T08:37:01;6.32;;;1.33;;
6406;SDS011;3236;51.022;6.818;2023-01-08T08:39:29;5.88;;;1.20;;
6406;SDS011;3236;51.022;6.818;2023-01-08T08:41:56;6.50;;;1.20;;
6406;SDS011;3236;51.022;6.818;2023-01-08T08:44:26;4.05;;;1.10;;
6406;SDS011;3236;51.022;6.818;2023-01-08T08:46:56;8.45;;;1.40;;
6406;SDS011;3236;51.022;6.818;2023-01-08T08:49:23;7.28;;;1.73;;
6406;SDS011;3236;51.022;6.818;2023-01-08T08:51:51;8.70;;;1.88;;
6406;SDS011;3236;51.022;6.818;2023-01-08T08:54:23;4.72;;;1.15;;
6406;SDS011;3236;51.022;6.818;2023-01-08T08:56:50;5.63;;;1.35;;
6406;SDS011;3236;51.022;6.818;2023-01-08T08:59:17;8.80;;;1.48;;
6406;SDS011;3236;51.022;6.818;2023-01-08T09:01:45;8.30;;;1.63;;
6406;SDS011;3236;51.022;6.818;2023-01-08T09:04:12;9.57;;;1.50;;
6406;SDS011;3236;51.022;6.818;2023-01-08T09:06:39;10.88;;;1.67;;
6406;SDS011;3236;51.022;6.818;2023-01-08T09:09:07;10.85;;;2.10;;
6406;SDS011;3236;51.022;6.818;2023-01-08T09:11:38;10.65;;;1.75;;
6406;SDS011;3236;51.022;6.818;2023-01-08T09:14:15;8.95;;;1.50;;
6406;SDS011;3236;51.022;6.818;2023-01-08T09:16:42;5.63;;;1.92;;
6406;SDS011;3236;51.022;6.818;2023-01-08T09:19:09;8.18;;;1.85;;
6406;SDS011;3236;51.022;6.818;2023-01-08T09:21:38;10.40;;;1.95;;
6406;SDS011;3236;51.022;6.818;2023-01-08T09:24:05;11.07;;;1.63;;
6406;SDS011;3236;51.022;6.818;2023-01-08T09:26:33;7.28;;;1.80;;
6406;SDS011;3236;51.022;6.818;2023-01-08T09:29:02;6.22;;;1.35;;
6406;SDS011;3236;51.022;6.818;2023-01-08T09:31:29;5.43;;;1.27;;
6406;SDS011;3236;51.022;6.818;2023-01-08T09:33:57;7.10;;;1.33;;
6406;SDS011;3236;51.022;6.818;2023-01-08T09:36:24;4.53;;;1.30;;
6406;SDS011;3236;51.022;6.818;2023-01-08T09:38:55;4.05;;;0.93;;
6406;SDS011;3236;51.022;6.818;2023-01-08T09:41:24;5.70;;;1.23;;
6406;SDS011;3236;51.022;6.818;2023-01-08T09:43:53;7.40;;;0.80;;
6406;SDS011;3236;51.022;6.818;2023-01-08T09:46:25;2.90;;;0.73;;
6406;SDS011;3236;51.022;6.818;2023-01-08T09:48:54;4.97;;;1.33;;
6406;SDS011;3236;51.022;6.818;2023-01-08T09:51:26;1.75;;;0.70;;
6406;SDS011;3236;51.022;6.818;2023-01-08T09:53:59;5.63;;;1.50;;
6406;SDS011;3236;51.022;6.818;2023-01-08T09:56:30;2.08;;;0.98;;
6406;SDS011;3236;51.022;6.818;2023-01-08T09:59:00;5.85;;;1.70;;
6406;SDS011;3236;51.022;6.818;2023-01-08T10:01:36;1.85;;;1.08;;
6406;SDS011;3236;51.022;6.818;2023-01-08T10:04:05;2.65;;;1.42;;
6406;SDS011;3236;51.022;6.818;2023-01-08T10:06:39;3.25;;;0.88;;
6406;SDS011;3236;51.022;6.818;2023-01-08T10:09:08;2.50;;;0.90;;
6406;SDS011;3236;51.022;6.818;2023-01-08T10:11:40;3.85;;;1.48;;
6406;SDS011;3236;51.022;6.818;2023-01-08T10:14:14;1.42;;;1.05;;
6406;SDS011;3236;51.022;6.818;2023-01-08T10:16:50;2.67;;;1.15;;
6406;SDS011;3236;51.022;6.818;2023-01-08T10:19:21;2.13;;;0.93;;
6406;SDS011;3236;51.022;6.818;2023-01-08T10:21:50;1.52;;;0.60;;
6406;SDS011;3236;51.022;6.818;2023-01-08T10:24:29;5.15;;;0.93;;
6406;SDS011;3236;51.022;6.818;2023-01-08T10:27:03;1.98;;;1.10;;
6406;SDS011;3236;51.022;6.818;2023-01-08T10:29:35;2.53;;;0.93;;
6406;SDS011;3236;51.022;6.818;2023-01-08T10:32:08;4.22;;;1.10;;
6406;SDS011;3236;51.022;6.818;2023-01-08T10:34:41;5.70;;;1.17;;
6406;SDS011;3236;51.022;6.818;2023-01-08T10:37:14;5.22;;;1.35;;
6406;SDS011;3236;51.022;6.818;2023-01-08T10:39:48;3.38;;;1.08;;
6406;SDS011;3236;51.022;6.818;2023-01-08T10:42:17;4.50;;;1.30;;
6406;SDS011;3236;51.022;6.818;2023-01-08T10:44:49;5.50;;;1.58;;
6406;SDS011;3236;51.022;6.818;2023-01-08T10:47:30;7.63;;;1.23;;
6406;SDS011;3236;51.022;6.818;2023-01-08T10:50:00;4.70;;;1.48;;
6406;SDS011;3236;51.022;6.818;2023-01-08T10:52:30;3.97;;;1.02;;
6406;SDS011;3236;51.022;6.818;2023-01-08T10:55:10;2.53;;;1.20;;
6406;SDS011;3236;51.022;6.818;2023-01-08T10:57:39;4.47;;;1.13;;
6406;SDS011;3236;51.022;6.818;2023-01-08T11:00:21;3.40;;;0.93;;
6406;SDS011;3236;51.022;6.818;2023-01-08T11:02:49;4.15;;;1.08;;
6406;SDS011;3236;51.022;6.818;2023-01-08T11:05:27;5.28;;;1.00;;
6406;SDS011;3236;51.022;6.818;2023-01-08T11:07:58;6.72;;;1.05;;
6406;SDS011;3236;51.022;6.818;2023-01-08T11:10:27;1.08;;;0.52;;
6406;SDS011;3236;51.022;6.818;2023-01-08T11:13:00;5.63;;;0.90;;
6406;SDS011;3236;51.022;6.818;2023-01-08T11:15:31;4.47;;;1.00;;
6406;SDS011;3236;51.022;6.818;2023-01-08T11:18:10;3.93;;;1.60;;
6406;SDS011;3236;51.022;6.818;2023-01-08T11:20:52;2.00;;;0.90;;
6406;SDS011;3236;51.022;6.818;2023-01-08T11:23:24;2.95;;;1.00;;
6406;SDS011;3236;51.022;6.818;2023-01-08T11:25:58;1.65;;;0.70;;
6406;SDS011;3236;51.022;6.818;2023-01-08T11:28:28;1.67;;;0.82;;
6406;SDS011;3236;51.022;6.818;2023-01-08T11:31:06;1.05;;;0.80;;
6406;SDS011;3236;51.022;6.818;2023-01-08T11:33:41;3.22;;;0.80;;
6406;SDS011;3236;51.022;6.818;2023-01-08T11:36:10;1.73;;;0.75;;
6406;SDS011;3236;51.022;6.818;2023-01-08T11:38:40;1.10;;;0.70;;
6406;SDS011;3236;51.022;6.818;2023-01-08T11:41:15;2.75;;;0.68;;
6406;SDS011;3236;51.022;6.818;2023-01-08T11:44:11;3.00;;;0.90;;
6406;SDS011;3236;51.022;6.818;2023-01-08T11:46:47;2.03;;;0.70;;
6406;SDS011;3236;51.022;6.818;2023-01-08T11:49:38;1.60;;;0.73;;
6406;SDS011;3236;51.022;6.818;2023-01-08T11:52:20;3.45;;;0.60;;
6406;SDS011;3236;51.022;6.818;2023-01-08T11:55:12;1.05;;;0.65;;
6406;SDS011;3236;51.022;6.818;2023-01-08T11:57:52;2.45;;;0.80;;
6406;SDS011;3236;51.022;6.818;2023-01-08T12:00:32;1.50;;;0.50;;
6406;SDS011;3236;51.022;6.818;2023-01-08T12:03:25;1.80;;;0.95;;
6406;SDS011;3236;51.022;6.818;2023-01-08T12:06:09;2.00;;;0.80;;
6406;SDS011;3236;51.022;6.818;2023-01-08T12:08:55;0.80;;;0.30;;
6406;SDS011;3236;51.022;6.818;2023-01-08T12:11:38;0.40;;;0.40;;
6406;SDS011;3236;51.022;6.818;2023-01-08T12:14:16;0.80;;;0.57;;
6406;SDS011;3236;51.022;6.818;2023-01-08T12:16:53;0.88;;;0.60;;
6406;SDS011;3236;51.022;6.818;2023-01-08T12:19:42;4.28;;;0.65;;
6406;SDS011;3236;51.022;6.818;2023-01-08T12:22:28;0.30;;;0.30;;
6406;SDS011;3236;51.022;6.818;2023-01-08T12:25:20;0.30;;;0.30;;
6406;SDS011;3236;51.022;6.818;2023-01-08T12:28:02;1.23;;;0.40;;
6406;SDS011;3236;51.022;6.818;2023-01-08T12:30:44;0.65;;;0.43;;
6406;SDS011;3236;51.022;6.818;2023-01-08T12:33:14;1.13;;;0.40;;
6406;SDS011;3236;51.022;6.818;2023-01-08T12:35:46;1.85;;;0.40;;
6406;SDS011;3236;51.022;6.818;2023-01-08T12:38:17;0.50;;;0.47;;
6406;SDS011;3236;51.022;6.818;2023-01-08T12:40:50;0.55;;;0.55;;
6406;SDS011;3236;51.022;6.818;2023-01-08T12:43:23;0.40;;;0.40;;
6406;SDS011;3236;51.022;6.818;2023-01-08T12:45:54;2.45;;;0.50;;
6406;SDS011;3236;51.022;6.818;2023-01-08T12:48:25;6.38;;;0.60;;
6406;SDS011;3236;51.022;6.818;2023-01-08T12:50:58;1.35;;;0.50;;
6406;SDS011;3236;51.022;6.818;2023-01-08T12:53:36;0.73;;;0.60;;
6406;SDS011;3236;51.022;6.818;2023-01-08T12:56:10;0.73;;;0.70;;
6406;SDS011;3236;51.022;6.818;2023-01-08T12:58:45;0.63;;;0.40;;
6406;SDS011;3236;51.022;6.818;2023-01-08T13:01:26;0.75;;;0.55;;
6406;SDS011;3236;51.022;6.818;2023-01-08T13:04:00;2.88;;;0.80;;
6406;SDS011;3236;51.022;6.818;2023-01-08T13:06:33;0.40;;;0.40;;
6406;SDS011;3236;51.022;6.818;2023-01-08T13:09:02;0.60;;;0.60;;
6406;SDS011;3236;51.022;6.818;2023-01-08T13:11:30;4.15;;;1.77;;
6406;SDS011;3236;51.022;6.818;2023-01-08T13:14:08;0.80;;;0.80;;
6406;SDS011;3236;51.022;6.818;2023-01-08T13:16:39;1.02;;;0.40;;
6406;SDS011;3236;51.022;6.818;2023-01-08T13:19:20;0.60;;;0.50;;
6406;SDS011;3236;51.022;6.818;2023-01-08T13:22:05;0.45;;;0.43;;
6406;SDS011;3236;51.022;6.818;2023-01-08T13:25:06;1.25;;;0.60;;
6406;SDS011;3236;51.022;6.818;2023-01-08T13:27:38;1.77;;;0.50;;
6406;SDS011;3236;51.022;6.818;2023-01-08T13:32:50;0.45;;;0.40;;
6406;SDS011;3236;51.022;6.818;2023-01-08T13:35:19;0.57;;;0.55;;
6406;SDS011;3236;51.022;6.818;2023-01-08T13:37:52;0.40;;;0.40;;
6406;SDS011;3236;51.022;6.818;2023-01-08T13:43:22;0.38;;;0.30;;
6406;SDS011;3236;51.022;6.818;2023-01-08T13:48:46;0.30;;;0.30;;
6406;SDS011;3236;51.022;6.818;2023-01-08T13:51:24;0.40;;;0.32;;
6406;SDS011;3236;51.022;6.818;2023-01-08T13:53:54;1.35;;;0.52;;
6406;SDS011;3236;51.022;6.818;2023-01-08T13:56:27;0.68;;;0.40;;
6406;SDS011;3236;51.022;6.818;2023-01-08T13:58:59;3.38;;;1.88;;
6406;SDS011;3236;51.022;6.818;2023-01-08T14:01:38;1.52;;;0.52;;
6406;SDS011;3236;51.022;6.818;2023-01-08T14:04:08;1.95;;;0.40;;
6406;SDS011;3236;51.022;6.818;2023-01-08T14:06:46;0.60;;;0.60;;
6406;SDS011;3236;51.022;6.818;2023-01-08T14:09:17;0.95;;;0.50;;
6406;SDS011;3236;51.022;6.818;2023-01-08T14:11:50;1.80;;;0.60;;
6406;SDS011;3236;51.022;6.818;2023-01-08T14:14:21;0.50;;;0.50;;
6406;SDS011;3236;51.022;6.818;2023-01-08T14:16:50;1.02;;;0.50;;
6406;SDS011;3236;51.022;6.818;2023-01-08T14:19:33;2.65;;;0.73;;
6406;SDS011;3236;51.022;6.818;2023-01-08T14:22:10;3.00;;;0.55;;
6406;SDS011;3236;51.022;6.818;2023-01-08T14:24:43;1.38;;;0.60;;
6406;SDS011;3236;51.022;6.818;2023-01-08T14:27:20;0.88;;;0.40;;
6406;SDS011;3236;51.022;6.818;2023-01-08T14:29:50;0.40;;;0.40;;
6406;SDS011;3236;51.022;6.818;2023-01-08T14:32:18;0.45;;;0.40;;
6406;SDS011;3236;51.022;6.818;2023-01-08T14:34:47;1.70;;;0.40;;
6406;SDS011;3236;51.022;6.818;2023-01-08T14:37:16;1.83;;;0.77;;
6406;SDS011;3236;51.022;6.818;2023-01-08T14:39:44;1.05;;;0.70;;
6406;SDS011;3236;51.022;6.818;2023-01-08T14:42:13;1.20;;;0.70;;
6406;SDS011;3236;51.022;6.818;2023-01-08T14:45:04;1.95;;;0.60;;
6406;SDS011;3236;51.022;6.818;2023-01-08T14:47:34;0.95;;;0.73;;
6406;SDS011;3236;51.022;6.818;2023-01-08T14:50:04;1.90;;;0.70;;
6406;SDS011;3236;51.022;6.818;2023-01-08T14:52:33;0.98;;;0.70;;
6406;SDS011;3236;51.022;6.818;2023-01-08T14:55:11;0.80;;;0.70;;
6406;SDS011;3236;51.022;6.818;2023-01-08T14:57:41;1.88;;;0.95;;
6406;SDS011;3236;51.022;6.818;2023-01-08T15:00:17;3.75;;;1.45;;
6406;SDS011;3236;51.022;6.818;2023-01-08T15:02:48;4.65;;;3.25;;
6406;SDS011;3236;51.022;6.818;2023-01-08T15:05:17;5.15;;;1.92;;
6406;SDS011;3236;51.022;6.818;2023-01-08T15:08:01;3.00;;;1.23;;
6406;SDS011;3236;51.022;6.818;2023-01-08T15:10:37;4.22;;;2.40;;
6406;SDS011;3236;51.022;6.818;2023-01-08T15:13:20;1.85;;;0.95;;
6406;SDS011;3236;51.022;6.818;2023-01-08T15:15:52;0.90;;;0.90;;
6406;SDS011;3236;51.022;6.818;2023-01-08T15:18:22;3.13;;;1.00;;
6406;SDS011;3236;51.022;6.818;2023-01-08T15:20:49;4.70;;;0.90;;
6406;SDS011;3236;51.022;6.818;2023-01-08T15:23:27;1.95;;;1.08;;
6406;SDS011;3236;51.022;6.818;2023-01-08T15:26:00;4.35;;;1.10;;
6406;SDS011;3236;51.022;6.818;2023-01-08T15:28:28;8.60;;;2.60;;
6406;SDS011;3236;51.022;6.818;2023-01-08T15:31:00;4.95;;;1.75;;
6406;SDS011;3236;51.022;6.818;2023-01-08T15:33:27;8.85;;;2.28;;
6406;SDS011;3236;51.022;6.818;2023-01-08T15:35:56;4.82;;;2.72;;
6406;SDS011;3236;51.022;6.818;2023-01-08T15:38:24;4.20;;;1.90;;
6406;SDS011;3236;51.022;6.818;2023-01-08T15:40:53;8.13;;;3.22;;
6406;SDS011;3236;51.022;6.818;2023-01-08T15:43:34;4.28;;;1.90;;
6406;SDS011;3236;51.022;6.818;2023-01-08T15:46:08;2.30;;;1.48;;
6406;SDS011;3236;51.022;6.818;2023-01-08T15:48:39;5.25;;;2.60;;
6406;SDS011;3236;51.022;6.818;2023-01-08T15:51:10;7.15;;;3.15;;